createdAt,value
2022-09-13T00:02:06.581Z,5.20
2022-09-13T00:04:35.337Z,6.27
2022-09-13T00:07:06.492Z,5.80
2022-09-13T00:09:44.492Z,5.37
2022-09-13T00:12:12.864Z,4.90
2022-09-13T00:14:44.266Z,4.93
2022-09-13T00:17:14.929Z,7.40
2022-09-13T00:19:44.283Z,5.03
2022-09-13T00:22:14.010Z,4.97
2022-09-13T00:24:43.308Z,4.60
2022-09-13T00:27:15.620Z,4.80
2022-09-13T00:29:46.861Z,4.33
2022-09-13T00:32:15.295Z,5.87
2022-09-13T00:34:43.589Z,4.77
2022-09-13T00:37:21.155Z,6.70
2022-09-13T00:42:37.887Z,4.60
2022-09-13T00:45:20.031Z,4.70
2022-09-13T00:48:10.324Z,4.77
2022-09-13T00:50:59.682Z,4.90
2022-09-13T00:53:40.693Z,4.80
2022-09-13T00:56:24.109Z,5.33
2022-09-13T00:59:22.604Z,4.80
2022-09-13T01:01:56.034Z,4.80
2022-09-13T01:04:28.850Z,5.87
2022-09-13T01:07:03.195Z,5.50
2022-09-13T01:09:33.409Z,5.17
2022-09-13T01:12:22.549Z,5.57
2022-09-13T01:14:51.177Z,5.10
2022-09-13T01:17:19.975Z,5.23
2022-09-13T01:19:48.233Z,5.87
2022-09-13T01:22:55.715Z,5.20
2022-09-13T01:25:52.489Z,5.00
2022-09-13T01:29:01.609Z,6.10
2022-09-13T01:32:00.275Z,5.27
2022-09-13T01:34:54.089Z,4.93
2022-09-13T01:37:47.785Z,4.83
2022-09-13T01:40:36.162Z,4.67
2022-09-13T01:43:23.643Z,4.40
2022-09-13T01:46:21.066Z,5.07
2022-09-13T01:49:17.590Z,5.00
2022-09-13T01:52:08.466Z,5.00
2022-09-13T01:55:09.200Z,4.70
2022-09-13T01:58:29.348Z,5.10
2022-09-13T02:01:33.357Z,4.73
2022-09-13T02:04:13.067Z,4.93
2022-09-13T02:07:06.583Z,5.07
2022-09-13T02:09:44.851Z,4.30
2022-09-13T02:12:36.266Z,5.00
2022-09-13T02:15:09.993Z,4.60
2022-09-13T02:17:44.392Z,6.37
2022-09-13T02:20:37.209Z,4.33
2022-09-13T02:23:12.660Z,4.70
2022-09-13T02:25:41.542Z,7.23
2022-09-13T02:28:17.456Z,5.40
2022-09-13T02:30:52.566Z,4.60
2022-09-13T02:33:36.433Z,5.03
2022-09-13T02:36:10.287Z,4.40
2022-09-13T02:38:48.321Z,4.70
2022-09-13T02:41:36.271Z,5.37
2022-09-13T02:44:16.944Z,4.30
2022-09-13T02:47:23.154Z,4.47
2022-09-13T02:50:16.004Z,5.63
2022-09-13T02:52:56.883Z,6.63
2022-09-13T02:56:11.841Z,4.80
2022-09-13T02:59:05.154Z,4.60
2022-09-13T03:01:39.882Z,4.70
2022-09-13T03:04:08.631Z,5.37
2022-09-13T03:06:36.628Z,5.43
2022-09-13T03:09:06.777Z,4.60
2022-09-13T03:12:14.062Z,4.23
2022-09-13T03:15:10.371Z,4.83
2022-09-13T03:18:18.395Z,5.37
2022-09-13T03:21:13.049Z,4.73
2022-09-13T03:24:27.964Z,4.73
2022-09-13T03:27:12.285Z,4.97
2022-09-13T03:29:57.214Z,4.60
2022-09-13T03:33:07.519Z,4.73
2022-09-13T03:36:27.386Z,4.57
2022-09-13T03:39:17.484Z,5.10
2022-09-13T03:41:54.583Z,4.53
2022-09-13T03:47:08.714Z,5.30
2022-09-13T03:49:39.443Z,5.40
2022-09-13T03:52:10.926Z,4.90
2022-09-13T03:54:40.343Z,5.87
2022-09-13T03:57:20.283Z,5.03
2022-09-13T03:59:55.949Z,5.87
2022-09-13T04:02:29.061Z,4.70
2022-09-13T04:07:44.566Z,5.27
2022-09-13T04:10:14.097Z,4.63
2022-09-13T04:12:46.602Z,5.90
2022-09-13T04:15:17.406Z,4.50
2022-09-13T04:17:48.853Z,5.23
2022-09-13T04:20:20.398Z,6.03
2022-09-13T04:22:55.038Z,4.70
2022-09-13T04:25:26.789Z,5.20
2022-09-13T04:30:42.492Z,5.27
2022-09-13T04:33:12.161Z,5.80
2022-09-13T04:35:40.981Z,4.90
2022-09-13T04:38:11.526Z,5.33
2022-09-13T04:40:40.908Z,4.87
2022-09-13T04:43:11.756Z,4.57
2022-09-13T04:45:41.704Z,6.47
2022-09-13T04:48:12.074Z,4.60
2022-09-13T04:50:43.664Z,6.47
2022-09-13T04:56:07.406Z,6.67
2022-09-13T04:58:38.649Z,4.90
2022-09-13T05:01:09.730Z,5.13
2022-09-13T05:03:38.927Z,5.53
2022-09-13T05:06:15.571Z,7.37
2022-09-13T05:08:51.578Z,7.33
2022-09-13T05:11:20.440Z,5.10
2022-09-13T05:14:00.906Z,6.83
2022-09-13T05:16:41.847Z,7.23
2022-09-13T05:19:11.857Z,4.90
2022-09-13T05:21:39.505Z,5.63
2022-09-13T05:24:10.675Z,5.90
2022-09-13T05:26:40.278Z,5.43
2022-09-13T05:29:10.276Z,6.70
2022-09-13T05:31:45.012Z,5.50
2022-09-13T05:34:25.971Z,6.10
2022-09-13T05:36:57.870Z,5.80
2022-09-13T05:39:33.825Z,5.57
2022-09-13T05:42:08.396Z,5.27
2022-09-13T05:44:38.247Z,5.60
2022-09-13T05:47:07.076Z,5.93
2022-09-13T05:49:45.206Z,5.50
2022-09-13T05:52:27.613Z,7.70
2022-09-13T05:54:58.438Z,5.50
2022-09-13T05:57:28.089Z,5.43
2022-09-13T05:59:57.953Z,5.33
2022-09-13T06:02:29.073Z,5.47
2022-09-13T06:04:59.467Z,7.40
2022-09-13T06:07:31.257Z,6.20
2022-09-13T06:10:01.159Z,6.03
2022-09-13T06:12:32.289Z,6.03
2022-09-13T06:15:04.757Z,5.43
2022-09-13T06:17:38.317Z,5.80
2022-09-13T06:20:07.955Z,6.60
2022-09-13T06:25:20.877Z,5.63
2022-09-13T06:27:54.625Z,5.40
2022-09-13T06:30:22.241Z,6.20
2022-09-13T06:32:52.939Z,6.83
2022-09-13T06:35:30.291Z,5.77
2022-09-13T06:38:02.577Z,5.60
2022-09-13T06:40:31.201Z,6.37
2022-09-13T06:43:00.909Z,5.73
2022-09-13T06:45:31.188Z,5.50
2022-09-13T06:48:02.740Z,6.07
2022-09-13T06:50:35.511Z,8.30
2022-09-13T06:55:46.101Z,5.37
2022-09-13T06:58:14.501Z,7.63
2022-09-13T07:00:47.398Z,6.90
2022-09-13T07:03:18.210Z,6.53
2022-09-13T07:05:48.695Z,6.73
2022-09-13T07:08:17.218Z,6.13
2022-09-13T07:10:45.201Z,6.27
2022-09-13T07:13:14.838Z,6.80
2022-09-13T07:15:43.451Z,6.60
2022-09-13T07:18:14.699Z,6.80
2022-09-13T07:20:44.740Z,7.47
2022-09-13T07:23:25.539Z,6.70
2022-09-13T07:26:07.417Z,7.00
2022-09-13T07:28:45.488Z,8.50
2022-09-13T07:31:21.489Z,7.27
2022-09-13T07:34:03.975Z,8.00
2022-09-13T07:36:33.975Z,6.50
2022-09-13T07:41:47.762Z,6.63
2022-09-13T07:44:17.705Z,6.60
2022-09-13T07:46:47.299Z,7.53
2022-09-13T07:49:18.371Z,6.03
2022-09-13T07:51:47.938Z,5.63
2022-09-13T07:54:17.927Z,6.37
2022-09-13T07:56:53.536Z,5.47
2022-09-13T07:59:25.877Z,5.00
2022-09-13T08:04:44.643Z,4.40
2022-09-13T08:07:21.874Z,6.03
2022-09-13T08:09:51.288Z,4.90
2022-09-13T08:12:21.183Z,4.83
2022-09-13T08:14:51.504Z,4.20
2022-09-13T08:17:20.373Z,5.83
2022-09-13T08:19:48.203Z,5.53
2022-09-13T08:22:17.909Z,4.53
2022-09-13T08:24:48.368Z,4.20
2022-09-13T08:27:18.383Z,4.87
2022-09-13T08:29:56.835Z,5.73
2022-09-13T08:32:28.963Z,5.27
2022-09-13T08:35:07.415Z,4.60
2022-09-13T08:40:20.767Z,4.73
2022-09-13T08:42:56.710Z,5.30
2022-09-13T08:45:29.382Z,4.67
2022-09-13T08:48:03.792Z,5.20
2022-09-13T08:50:36.797Z,5.10
2022-09-13T08:53:31.425Z,4.57
2022-09-13T08:56:12.807Z,4.70
2022-09-13T08:59:22.368Z,5.47
2022-09-13T09:02:29.273Z,4.20
2022-09-13T09:05:19.909Z,4.50
2022-09-13T09:08:17.149Z,4.10
2022-09-13T09:10:53.270Z,4.70
2022-09-13T09:13:54.097Z,4.47
2022-09-13T09:16:39.384Z,4.43
2022-09-13T09:19:48.004Z,4.37
2022-09-13T09:22:23.374Z,4.23
2022-09-13T09:24:59.520Z,5.73
2022-09-13T09:27:31.362Z,5.20
2022-09-13T09:30:01.357Z,5.13
2022-09-13T09:32:52.565Z,5.67
2022-09-13T09:35:41.682Z,4.50
2022-09-13T09:38:27.673Z,5.50
2022-09-13T09:40:57.445Z,4.30
2022-09-13T09:43:33.710Z,5.17
2022-09-13T09:46:07.254Z,4.67
2022-09-13T09:48:50.234Z,5.17
2022-09-13T09:51:22.278Z,4.63
2022-09-13T09:53:59.622Z,4.67
2022-09-13T09:56:41.134Z,6.37
2022-09-13T10:02:22.023Z,4.60
2022-09-13T10:05:02.514Z,4.80
2022-09-13T10:07:58.789Z,6.67
2022-09-13T10:10:55.156Z,5.67
2022-09-13T10:13:31.913Z,4.80
2022-09-13T10:16:23.284Z,4.50
2022-09-13T10:18:54.827Z,4.97
2022-09-13T10:21:28.353Z,4.63
2022-09-13T10:24:17.549Z,3.93
2022-09-13T10:26:54.746Z,5.60
2022-09-13T10:29:25.515Z,5.83
2022-09-13T10:32:00.831Z,4.17
2022-09-13T10:34:32.718Z,4.57
2022-09-13T10:37:23.952Z,5.77
2022-09-13T10:40:30.438Z,5.33
2022-09-13T10:43:04.210Z,4.17
2022-09-13T10:45:36.922Z,5.03
2022-09-13T10:48:06.534Z,4.23
2022-09-13T10:50:38.437Z,4.47
2022-09-13T10:53:50.622Z,4.33
2022-09-13T10:56:31.966Z,4.07
2022-09-13T10:59:38.465Z,4.07
2022-09-13T11:02:33.529Z,3.90
2022-09-13T11:05:21.253Z,3.80
2022-09-13T11:08:12.700Z,4.17
2022-09-13T11:11:12.233Z,3.83
2022-09-13T11:14:17.784Z,3.70
2022-09-13T11:17:21.045Z,3.63
2022-09-13T11:20:28.947Z,4.37
2022-09-13T11:23:33.063Z,3.57
2022-09-13T11:26:30.394Z,3.50
2022-09-13T11:29:16.998Z,4.07
2022-09-13T11:32:24.121Z,3.40
2022-09-13T11:35:31.672Z,3.50
2022-09-13T11:38:33.229Z,3.37
2022-09-13T11:41:44.075Z,2.97
2022-09-13T11:44:39.334Z,2.90
2022-09-13T11:47:19.052Z,2.90
2022-09-13T11:50:33.654Z,3.00
2022-09-13T11:53:29.938Z,2.83
2022-09-13T11:56:35.098Z,3.00
2022-09-13T11:59:23.857Z,3.00
2022-09-13T12:01:57.670Z,2.83
2022-09-13T12:04:40.507Z,2.80
2022-09-13T12:07:20.285Z,3.43
2022-09-13T12:10:05.548Z,3.00
2022-09-13T12:12:39.990Z,2.70
2022-09-13T12:15:31.248Z,2.60
2022-09-13T12:18:26.884Z,3.57
2022-09-13T12:21:00.668Z,2.80
2022-09-13T12:23:54.751Z,3.10
2022-09-13T12:26:48.954Z,3.10
2022-09-13T12:30:15.091Z,2.20
2022-09-13T12:32:47.531Z,2.33
2022-09-13T12:35:32.948Z,2.00
2022-09-13T12:38:36.617Z,2.20
2022-09-13T12:41:45.129Z,2.17
2022-09-13T12:44:34.771Z,2.57
2022-09-13T12:47:35.540Z,2.10
2022-09-13T12:50:43.887Z,3.20
2022-09-13T12:53:51.071Z,3.97
2022-09-13T12:56:57.031Z,2.20
2022-09-13T12:59:54.172Z,2.00
2022-09-13T13:02:55.657Z,2.20
2022-09-13T13:05:35.694Z,2.10
2022-09-13T13:08:07.859Z,2.10
2022-09-13T13:10:39.885Z,2.20
2022-09-13T13:13:57.506Z,2.10
2022-09-13T13:16:34.371Z,2.30
2022-09-13T13:19:22.998Z,2.23
2022-09-13T13:21:54.866Z,2.33
2022-09-13T13:24:35.306Z,2.13
2022-09-13T13:27:37.517Z,2.20
2022-09-13T13:30:43.771Z,2.00
2022-09-13T13:33:29.212Z,2.00
2022-09-13T13:36:28.998Z,2.07
2022-09-13T13:39:02.467Z,2.17
2022-09-13T13:42:15.814Z,2.63
2022-09-13T13:44:46.072Z,2.23
2022-09-13T13:47:22.115Z,2.43
2022-09-13T13:49:55.503Z,2.33
2022-09-13T13:53:06.507Z,2.00
2022-09-13T13:56:18.084Z,2.30
2022-09-13T13:59:08.922Z,2.03
2022-09-13T14:01:47.269Z,2.00
2022-09-13T14:04:33.127Z,2.20
2022-09-13T14:07:49.673Z,2.13
2022-09-13T14:10:50.734Z,2.10
2022-09-13T14:13:51.968Z,2.03
2022-09-13T14:16:50.012Z,2.30
2022-09-13T14:19:34.617Z,2.00
2022-09-13T14:22:46.431Z,2.20
2022-09-13T14:25:25.924Z,2.00
2022-09-13T14:28:05.145Z,2.40
2022-09-13T14:30:37.619Z,2.00
2022-09-13T14:33:06.716Z,2.00
2022-09-13T14:35:37.879Z,1.77
2022-09-13T14:38:21.045Z,2.00
2022-09-13T14:40:55.235Z,2.07
2022-09-13T14:43:27.326Z,2.10
2022-09-13T14:46:13.394Z,2.17
2022-09-13T14:49:08.052Z,1.60
2022-09-13T14:52:04.809Z,2.33
2022-09-13T14:54:48.979Z,3.10
2022-09-13T14:57:35.864Z,2.50
2022-09-13T15:00:19.292Z,2.07
2022-09-13T15:02:58.360Z,1.70
2022-09-13T15:05:34.079Z,1.80
2022-09-13T15:08:40.014Z,3.70
2022-09-13T15:11:15.325Z,4.03
2022-09-13T15:13:46.994Z,2.83
2022-09-13T15:16:31.590Z,2.50
2022-09-13T15:19:32.024Z,2.60
2022-09-13T15:22:27.522Z,4.50
2022-09-13T15:25:00.723Z,5.30
2022-09-13T15:27:45.498Z,4.70
2022-09-13T15:30:29.217Z,4.50
2022-09-13T15:33:24.898Z,2.87
2022-09-13T15:36:15.306Z,3.50
2022-09-13T15:39:19.971Z,3.20
2022-09-13T15:42:00.496Z,3.07
2022-09-13T15:44:32.211Z,4.30
2022-09-13T15:47:09.062Z,3.00
2022-09-13T15:49:43.982Z,3.20
2022-09-13T15:52:15.447Z,4.63
2022-09-13T15:54:49.416Z,3.17
2022-09-13T15:57:28.729Z,3.20
2022-09-13T16:00:02.734Z,3.20
2022-09-13T16:02:54.784Z,3.37
2022-09-13T16:05:32.231Z,4.20
2022-09-13T16:08:03.201Z,3.93
2022-09-13T16:10:35.797Z,3.70
2022-09-13T16:13:05.386Z,3.33
2022-09-13T16:15:39.406Z,3.80
2022-09-13T16:18:12.004Z,5.10
2022-09-13T16:20:43.770Z,3.43
2022-09-13T16:23:14.814Z,5.13
2022-09-13T16:25:45.355Z,4.13
2022-09-13T16:28:20.919Z,2.90
2022-09-13T16:30:48.780Z,4.70
2022-09-13T16:33:19.708Z,4.77
2022-09-13T16:35:50.021Z,3.63
2022-09-13T16:38:19.987Z,3.73
2022-09-13T16:40:50.235Z,4.13
2022-09-13T16:43:19.799Z,5.90
2022-09-13T16:45:49.258Z,3.73
2022-09-13T16:48:19.896Z,3.60
2022-09-13T16:50:50.924Z,4.53
2022-09-13T16:53:19.398Z,5.40
2022-09-13T16:55:51.585Z,5.63
2022-09-13T16:58:19.273Z,5.37
2022-09-13T17:00:46.850Z,4.57
2022-09-13T17:03:18.716Z,4.57
2022-09-13T17:06:00.849Z,3.87
2022-09-13T17:08:31.466Z,5.33
2022-09-13T17:11:03.862Z,3.97
2022-09-13T17:13:33.099Z,5.43
2022-09-13T17:16:03.538Z,4.10
2022-09-13T17:18:33.697Z,4.20
2022-09-13T17:21:03.677Z,5.77
2022-09-13T17:23:32.696Z,4.03
2022-09-13T17:26:04.905Z,4.10
2022-09-13T17:28:35.423Z,4.00
2022-09-13T17:33:50.970Z,4.50
2022-09-13T17:36:22.219Z,3.80
2022-09-13T17:38:56.844Z,4.40
2022-09-13T17:41:33.069Z,4.37
2022-09-13T17:44:03.722Z,4.03
2022-09-13T17:46:33.090Z,4.63
2022-09-13T17:49:03.472Z,5.77
2022-09-13T17:51:34.078Z,6.40
2022-09-13T17:54:08.283Z,4.80
2022-09-13T17:56:45.853Z,5.07
2022-09-13T17:59:22.596Z,4.03
2022-09-13T18:01:53.692Z,4.13
2022-09-13T18:04:26.570Z,5.23
2022-09-13T18:09:40.762Z,4.50
2022-09-13T18:12:12.197Z,4.43
2022-09-13T18:14:42.994Z,4.30
2022-09-13T18:17:14.548Z,4.33
2022-09-13T18:19:46.648Z,6.00
2022-09-13T18:25:00.954Z,4.43
2022-09-13T18:27:31.099Z,4.20
2022-09-13T18:30:00.827Z,4.00
2022-09-13T18:32:33.177Z,5.17
2022-09-13T18:35:04.136Z,4.03
2022-09-13T18:37:33.801Z,4.53
2022-09-13T18:40:13.931Z,4.10
2022-09-13T18:42:45.140Z,4.07
2022-09-13T18:45:16.233Z,4.20
2022-09-13T18:47:47.287Z,4.80
2022-09-13T18:53:01.358Z,5.27
2022-09-13T18:55:29.729Z,5.40
2022-09-13T18:58:01.940Z,4.80
2022-09-13T19:00:33.029Z,4.47
2022-09-13T19:03:12.158Z,5.13
2022-09-13T19:05:45.581Z,4.63
2022-09-13T19:08:19.582Z,5.77
2022-09-13T19:10:50.538Z,4.70
2022-09-13T19:13:28.455Z,4.37
2022-09-13T19:16:08.085Z,5.17
2022-09-13T19:18:41.975Z,4.60
2022-09-13T19:21:17.932Z,4.70
2022-09-13T19:23:58.775Z,4.90
2022-09-13T19:26:36.978Z,4.53
2022-09-13T19:29:16.590Z,5.13
2022-09-13T19:31:49.614Z,4.63
2022-09-13T19:34:21.911Z,4.43
2022-09-13T19:36:58.207Z,5.43
2022-09-13T19:39:30.439Z,5.07
2022-09-13T19:42:05.323Z,4.93
2022-09-13T19:44:37.795Z,4.30
2022-09-13T19:49:52.709Z,4.53
2022-09-13T19:52:22.246Z,4.30
2022-09-13T19:54:52.460Z,4.43
2022-09-13T19:57:20.203Z,4.53
2022-09-13T19:59:50.823Z,5.53
2022-09-13T20:02:20.387Z,4.37
2022-09-13T20:04:50.181Z,4.43
2022-09-13T20:07:21.772Z,4.40
2022-09-13T20:09:54.743Z,4.30
2022-09-13T20:12:24.917Z,5.83
2022-09-13T20:14:57.954Z,4.87
2022-09-13T20:17:29.365Z,5.00
2022-09-13T20:20:00.692Z,4.33
2022-09-13T20:22:30.837Z,4.70
2022-09-13T20:25:01.649Z,5.17
2022-09-13T20:27:34.340Z,4.40
2022-09-13T20:30:07.699Z,5.60
2022-09-13T20:32:39.622Z,4.27
2022-09-13T20:35:18.459Z,5.73
2022-09-13T20:37:53.532Z,5.10
2022-09-13T20:40:24.832Z,5.97
2022-09-13T20:42:53.738Z,4.50
2022-09-13T20:45:24.151Z,4.03
2022-09-13T20:47:56.277Z,4.20
2022-09-13T20:50:25.860Z,4.67
2022-09-13T20:52:58.327Z,4.50
2022-09-13T20:55:28.403Z,4.40
2022-09-13T20:57:59.828Z,4.00
2022-09-13T21:00:30.046Z,5.33
2022-09-13T21:03:02.046Z,5.83
2022-09-13T21:05:33.005Z,4.50
2022-09-13T21:08:22.495Z,5.60
2022-09-13T21:11:03.611Z,4.33
2022-09-13T21:16:27.267Z,4.20
2022-09-13T21:18:57.135Z,4.53
2022-09-13T21:21:37.614Z,5.00
2022-09-13T21:24:09.178Z,6.03
2022-09-13T21:26:50.165Z,5.13
2022-09-13T21:29:20.963Z,4.63
2022-09-13T21:31:50.864Z,4.90
2022-09-13T21:34:20.190Z,4.13
2022-09-13T21:36:50.193Z,3.97
2022-09-13T21:39:21.520Z,4.77
2022-09-13T21:41:51.758Z,4.37
2022-09-13T21:44:21.495Z,4.40
2022-09-13T21:46:51.878Z,4.47
2022-09-13T21:49:22.813Z,4.20
2022-09-13T21:51:52.827Z,4.77
2022-09-13T21:54:21.721Z,5.50
2022-09-13T21:56:54.799Z,5.23
2022-09-13T22:02:08.402Z,4.40
2022-09-13T22:04:39.528Z,4.23
2022-09-13T22:07:08.260Z,3.90
2022-09-13T22:09:38.125Z,3.90
2022-09-13T22:12:05.569Z,4.00
2022-09-13T22:14:35.461Z,4.30
2022-09-13T22:17:04.356Z,4.97
2022-09-13T22:19:33.091Z,4.20
2022-09-13T22:22:02.927Z,4.17
2022-09-13T22:24:39.271Z,5.57
2022-09-13T22:27:16.103Z,4.77
2022-09-13T22:29:44.281Z,3.80
2022-09-13T22:32:12.458Z,4.10
2022-09-13T22:37:27.709Z,3.30
2022-09-13T22:40:00.941Z,4.13
2022-09-13T22:42:33.162Z,8.80
2022-09-13T22:45:03.814Z,4.47
2022-09-13T22:47:35.018Z,4.40
2022-09-13T22:50:05.009Z,4.23
2022-09-13T22:52:33.924Z,5.03
2022-09-13T22:55:03.995Z,4.20
2022-09-13T22:57:34.938Z,5.23
2022-09-13T23:00:04.345Z,4.00
2022-09-13T23:02:32.279Z,3.90
2022-09-13T23:05:00.679Z,3.90
2022-09-13T23:07:29.580Z,4.93
2022-09-13T23:12:44.573Z,4.83
2022-09-13T23:15:13.446Z,4.97
2022-09-13T23:17:43.412Z,4.43
2022-09-13T23:20:12.013Z,4.47
2022-09-13T23:22:45.611Z,4.33
2022-09-13T23:25:14.478Z,4.63
2022-09-13T23:30:27.231Z,4.40
2022-09-13T23:32:57.722Z,4.70
2022-09-13T23:35:29.591Z,4.43
2022-09-13T23:38:09.326Z,4.60
2022-09-13T23:40:37.638Z,4.27
2022-09-13T23:43:08.339Z,4.90
2022-09-13T23:45:39.441Z,6.80
2022-09-13T23:48:07.817Z,4.50
2022-09-13T23:50:35.369Z,4.40
2022-09-13T23:53:07.186Z,6.47
2022-09-13T23:55:36.297Z,5.23
2022-09-13T23:58:05.358Z,5.33
